Time;durP1;ratioP1;P1;durP2;ratioP2;P2;SDS_P1;SDS_P2;PMS_P1;PMS_P2;Temp;Humidity;BMP_temperature;BMP_pressure;BME280_temperature;BME280_humidity;BME280_pressure;Samples;Min_cycle;Max_cycle;Signal;HPM_P1;HPM_P2
2023/05/07 00:01:07;;;;;;;;;;;;;;;;;;5095563;28;19908;-67
2023/05/07 00:03:33;;;;;;;;;;;;;;;;;;5094041;28;19965;-68
2023/05/07 00:05:59;;;;;;;;;;;;;;;;;;5094943;28;19912;-70
2023/05/07 00:08:25;;;;;;;;;;;;;;;;;;5093973;28;19908;-69
2023/05/07 00:10:51;;;;;;;;;;;;;;;;;;5095234;28;20433;-69
2023/05/07 00:13:17;;;;;;;;;;;;;;;;;;5094788;28;20418;-69
2023/05/07 00:15:43;;;;;;;;;;;;;;;;;;5095626;28;19995;-69
2023/05/07 00:18:09;;;;;;;;;;;;;;;;;;5095236;28;19909;-69
2023/05/07 00:20:35;;;;;;;;;;;;;;;;;;5095019;28;19912;-69
2023/05/07 00:23:01;;;;;;;;;;;;;;;;;;5094987;28;19916;-69
2023/05/07 00:25:27;;;;;;;;;;;;;;;;;;5094573;28;19931;-69
2023/05/07 00:27:53;;;;;;;;;;;;;;;;;;5095167;28;19927;-69
2023/05/07 00:30:19;;;;;;;;;;;;;;;;;;5094838;28;19908;-69
2023/05/07 00:32:45;;;;;;;;;;;;;;;;;;5094243;28;20016;-68
2023/05/07 00:35:12;;;;;;;;;;;;;;;;;;5094627;28;20009;-69
2023/05/07 00:37:37;;;;;;;;;;;;;;;;;;5094841;28;19908;-69
2023/05/07 00:40:06;;;;;;;;;;;;;;;;;;5094160;28;19915;-69
2023/05/07 00:42:32;;;;;;;;;;;;;;;;;;5094607;28;19908;-69
2023/05/07 00:44:59;;;;;;;;;;;;;;;;;;5094656;28;19915;-69
2023/05/07 00:47:25;;;;;;;;;;;;;;;;;;5094228;28;19994;-69
2023/05/07 00:49:51;;;;;;;;;;;;;;;;;;5094470;28;20295;-69
2023/05/07 00:52:17;;;;;;;;;;;;;;;;;;5094658;28;19930;-69
2023/05/07 00:54:43;;;;;;;;;;;;;;;;;;5092586;28;19969;-69
2023/05/07 00:57:09;;;;;;;;;;;;;;;;;;5094754;28;20403;-68
2023/05/07 00:59:35;;;;;;;;;;;;;;;;;;5093037;28;19912;-68
2023/05/07 01:02:01;;;;;;;;;;;;;;;;;;5093956;28;20364;-68
2023/05/07 01:04:27;;;;;;;;;;;;;;;;;;5094626;28;19915;-68
2023/05/07 01:06:53;;;;;;;;;;;;;;;;;;5094201;28;19916;-68
2023/05/07 01:09:19;;;;;;;;;;;;;;;;;;5093596;28;19909;-68
2023/05/07 01:11:45;;;;;;;;;;;;;;;;;;5094141;28;19938;-68
2023/05/07 01:14:11;;;;;;;;;;;;;;;;;;5094047;28;20010;-68
2023/05/07 01:16:37;;;;;;;;;;;;;;;;;;5093711;28;19912;-69
2023/05/07 01:19:03;;;;;;;;;;;;;;;;;;5094092;28;19999;-68
2023/05/07 01:21:30;;;;;;;;;;;;;;;;;;5093685;28;20008;-68
2023/05/07 01:23:56;;;;;;;;;;;;;;;;;;5094015;28;19908;-69
2023/05/07 01:26:23;;;;;;;;;;;;;;;;;;5093992;28;19915;-68
2023/05/07 01:28:50;;;;;;;;;;;;;;;;;;5093575;28;19909;-68
2023/05/07 01:31:16;;;;;;;;;;;;;;;;;;5093969;28;20308;-69
2023/05/07 01:33:42;;;;;;;;;;;;;;;;;;5093798;28;19920;-69
2023/05/07 01:36:08;;;;;;;;;;;;;;;;;;5093581;28;19908;-69
2023/05/07 01:38:34;;;;;;;;;;;;;;;;;;5093943;28;19931;-68
2023/05/07 01:41:00;;;;;;;;;;;;;;;;;;5094125;28;19908;-68
2023/05/07 01:43:26;;;;;;;;;;;;;;;;;;5093570;28;19991;-69
2023/05/07 01:45:52;;;;;;;;;;;;;;;;;;5094519;28;19909;-69
2023/05/07 01:48:18;;;;;;;;;;;;;;;;;;5094290;28;20380;-69
2023/05/07 01:50:44;;;;;;;;;;;;;;;;;;5093355;28;19908;-68
2023/05/07 01:53:10;;;;;;;;;;;;;;;;;;5093578;28;19923;-70
2023/05/07 01:55:36;;;;;;;;;;;;;;;;;;5093718;28;19914;-69
2023/05/07 01:58:02;;;;;;;;;;;;;;;;;;5093307;28;19908;-69
2023/05/07 02:00:28;;;;;;;;;;;;;;;;;;5093669;28;19908;-69
2023/05/07 02:02:54;;;;;;;;;;;;;;;;;;5093653;28;20257;-69
2023/05/07 02:05:20;;;;;;;;;;;;;;;;;;5093306;28;19908;-70
2023/05/07 02:07:46;;;;;;;;;;;;;;;;;;5093653;28;20288;-69
2023/05/07 02:10:12;;;;;;;;;;;;;;;;;;5093591;28;19968;-70
2023/05/07 02:12:38;;;;;;;;;;;;;;;;;;5091904;28;19991;-69
2023/05/07 02:15:05;;;;;;;;;;;;;;;;;;5093457;28;20295;-68
2023/05/07 02:17:32;;;;;;;;;;;;;;;;;;5093490;28;20300;-69
2023/05/07 02:19:58;;;;;;;;;;;;;;;;;;5093952;28;19915;-69
2023/05/07 02:22:25;;;;;;;;;;;;;;;;;;5097339;28;19908;-69
2023/05/07 02:24:51;;;;;;;;;;;;;;;;;;5096885;28;20412;-70
2023/05/07 02:27:16;;;;;;;;;;;;;;;;;;5097600;28;19908;-69
2023/05/07 02:29:42;;;;;;;;;;;;;;;;;;5097124;28;20021;-70
2023/05/07 02:32:08;;;;;;;;;;;;;;;;;;5096762;28;19962;-69
2023/05/07 02:34:34;;;;;;;;;;;;;;;;;;5096922;28;20014;-70
2023/05/07 02:37:00;;;;;;;;;;;;;;;;;;5097064;28;19994;-69
2023/05/07 02:39:26;;;;;;;;;;;;;;;;;;5096653;28;20316;-69
2023/05/07 02:41:52;;;;;;;;;;;;;;;;;;5096989;28;19968;-68
2023/05/07 02:44:18;;;;;;;;;;;;;;;;;;5096853;28;19989;-70
2023/05/07 02:46:44;;;;;;;;;;;;;;;;;;5096347;28;19908;-69
2023/05/07 02:49:10;;;;;;;;;;;;;;;;;;5097077;28;19908;-69
2023/05/07 02:51:36;;;;;;;;;;;;;;;;;;5096799;28;19915;-69
2023/05/07 02:54:02;;;;;;;;;;;;;;;;;;5096284;28;19923;-69
2023/05/07 02:56:28;;;;;;;;;;;;;;;;;;5096721;28;19994;-70
2023/05/07 02:58:54;;;;;;;;;;;;;;;;;;5096921;28;19908;-68
2023/05/07 03:01:20;;;;;;;;;;;;;;;;;;5096227;28;19930;-69
2023/05/07 03:03:46;;;;;;;;;;;;;;;;;;5096629;28;19915;-69
2023/05/07 03:06:12;;;;;;;;;;;;;;;;;;5096580;28;19998;-69
2023/05/07 03:08:38;;;;;;;;;;;;;;;;;;5096137;28;19961;-69
2023/05/07 03:11:04;;;;;;;;;;;;;;;;;;5096474;28;19929;-69
2023/05/07 03:13:30;;;;;;;;;;;;;;;;;;5096299;28;19912;-69
2023/05/07 03:15:56;;;;;;;;;;;;;;;;;;5095953;28;19908;-69
2023/05/07 03:18:22;;;;;;;;;;;;;;;;;;5096649;28;19908;-69
2023/05/07 03:20:48;;;;;;;;;;;;;;;;;;5096294;28;20056;-69
2023/05/07 03:23:14;;;;;;;;;;;;;;;;;;5095850;28;19908;-69
2023/05/07 03:25:40;;;;;;;;;;;;;;;;;;5096093;28;19908;-69
2023/05/07 03:28:06;;;;;;;;;;;;;;;;;;5095666;28;19908;-69
2023/05/07 03:30:32;;;;;;;;;;;;;;;;;;5095968;28;20284;-69
2023/05/07 03:32:58;;;;;;;;;;;;;;;;;;5095804;28;19912;-69
2023/05/07 03:35:24;;;;;;;;;;;;;;;;;;5095567;28;20322;-69
2023/05/07 03:37:50;;;;;;;;;;;;;;;;;;5094650;28;20437;-69
2023/05/07 03:40:16;;;;;;;;;;;;;;;;;;5096208;28;20337;-69
2023/05/07 03:42:42;;;;;;;;;;;;;;;;;;5095459;28;19948;-69
2023/05/07 03:45:08;;;;;;;;;;;;;;;;;;5094395;28;19908;-69
2023/05/07 03:47:34;;;;;;;;;;;;;;;;;;5095805;28;19909;-69
2023/05/07 03:50:00;;;;;;;;;;;;;;;;;;5095405;28;19908;-69
2023/05/07 03:52:26;;;;;;;;;;;;;;;;;;5096016;28;20373;-69
2023/05/07 03:54:52;;;;;;;;;;;;;;;;;;5095534;28;19923;-69
2023/05/07 03:57:18;;;;;;;;;;;;;;;;;;5095061;28;19908;-69
2023/05/07 03:59:44;;;;;;;;;;;;;;;;;;5094176;28;20376;-69
2023/05/07 04:02:10;;;;;;;;;;;;;;;;;;5095586;28;19908;-69
2023/05/07 04:04:36;;;;;;;;;;;;;;;;;;5095049;28;20444;-69
2023/05/07 04:07:02;;;;;;;;;;;;;;;;;;5095655;28;19908;-69
2023/05/07 04:09:28;;;;;;;;;;;;;;;;;;5095393;28;19908;-70
2023/05/07 04:11:54;;;;;;;;;;;;;;;;;;5094847;28;19962;-68
2023/05/07 04:14:20;;;;;;;;;;;;;;;;;;5095143;28;20010;-70
2023/05/07 04:16:46;;;;;;;;;;;;;;;;;;5095320;28;19908;-69
2023/05/07 04:19:12;;;;;;;;;;;;;;;;;;5094762;28;19908;-69
2023/05/07 04:21:38;;;;;;;;;;;;;;;;;;5095447;28;19908;-70
2023/05/07 04:24:04;;;;;;;;;;;;;;;;;;5095064;28;19951;-69
2023/05/07 04:26:31;;;;;;;;;;;;;;;;;;5094592;28;19915;-70
2023/05/07 04:28:58;;;;;;;;;;;;;;;;;;5094920;28;19953;-69
2023/05/07 04:31:24;;;;;;;;;;;;;;;;;;5094446;28;19908;-69
2023/05/07 04:33:51;;;;;;;;;;;;;;;;;;5094686;28;19920;-69
2023/05/07 04:36:17;;;;;;;;;;;;;;;;;;5094805;28;19915;-69
2023/05/07 04:38:43;;;;;;;;;;;;;;;;;;5094421;28;19931;-69
2023/05/07 04:41:09;;;;;;;;;;;;;;;;;;5094750;28;20364;-71
2023/05/07 04:43:35;;;;;;;;;;;;;;;;;;5094162;28;19987;-69
2023/05/07 04:46:01;;;;;;;;;;;;;;;;;;5094200;28;19912;-69
2023/05/07 04:48:27;;;;;;;;;;;;;;;;;;5094513;28;20330;-70
2023/05/07 04:50:53;;;;;;;;;;;;;;;;;;5093267;28;20264;-69
2023/05/07 04:53:19;;;;;;;;;;;;;;;;;;5094266;28;19912;-68
2023/05/07 04:55:45;;;;;;;;;;;;;;;;;;5093031;28;19912;-69
2023/05/07 04:58:11;;;;;;;;;;;;;;;;;;5094366;28;19912;-69
2023/05/07 05:00:38;;;;;;;;;;;;;;;;;;5094038;28;19908;-67
2023/05/07 05:03:05;;;;;;;;;;;;;;;;;;5094394;28;20280;-70
2023/05/07 05:05:31;;;;;;;;;;;;;;;;;;5094577;28;19912;-69
2023/05/07 05:07:57;;;;;;;;;;;;;;;;;;5093860;28;19931;-69
2023/05/07 05:10:22;;;;;;;;;;;;;;;;;;5094200;28;19930;-68
2023/05/07 05:12:48;;;;;;;;;;;;;;;;;;5094178;28;20369;-69
2023/05/07 05:15:14;;;;;;;;;;;;;;;;;;5093748;28;20342;-69
2023/05/07 05:17:40;;;;;;;;;;;;;;;;;;5094052;28;19909;-68
2023/05/07 05:20:06;;;;;;;;;;;;;;;;;;5094063;28;19999;-69
2023/05/07 05:22:32;;;;;;;;;;;;;;;;;;5093703;28;19962;-68
2023/05/07 05:24:58;;;;;;;;;;;;;;;;;;5094103;28;19931;-69
2023/05/07 05:27:24;;;;;;;;;;;;;;;;;;5094009;28;19930;-69
2023/05/07 05:29:50;;;;;;;;;;;;;;;;;;5093566;28;19908;-69
2023/05/07 05:32:16;;;;;;;;;;;;;;;;;;5093898;28;19908;-69
2023/05/07 05:34:42;;;;;;;;;;;;;;;;;;5093316;28;20338;-69
2023/05/07 05:37:08;;;;;;;;;;;;;;;;;;5093910;28;19908;-69
2023/05/07 05:39:34;;;;;;;;;;;;;;;;;;5093902;28;19908;-69
2023/05/07 05:42:00;;;;;;;;;;;;;;;;;;5093449;28;20253;-69
2023/05/07 05:44:25;;;;;;;;;;;;;;;;;;5093877;28;20328;-69
2023/05/07 05:46:51;;;;;;;;;;;;;;;;;;5093872;28;20336;-69
2023/05/07 05:49:17;;;;;;;;;;;;;;;;;;5093235;28;20014;-69
2023/05/07 05:51:43;;;;;;;;;;;;;;;;;;5093800;28;20277;-69
2023/05/07 05:54:09;;;;;;;;;;;;;;;;;;5093691;28;20377;-70
2023/05/07 05:56:35;;;;;;;;;;;;;;;;;;5097199;28;19908;-69
2023/05/07 05:59:01;;;;;;;;;;;;;;;;;;5097804;28;20368;-68
2023/05/07 06:01:27;;;;;;;;;;;;;;;;;;5097993;28;19932;-69
2023/05/07 06:03:53;;;;;;;;;;;;;;;;;;5097640;28;19908;-69
2023/05/07 06:06:19;;;;;;;;;;;;;;;;;;5097616;28;19908;-69
2023/05/07 06:08:45;;;;;;;;;;;;;;;;;;5097729;28;19908;-69
2023/05/07 06:11:11;;;;;;;;;;;;;;;;;;5097228;28;19912;-69
2023/05/07 06:13:37;;;;;;;;;;;;;;;;;;5097741;28;19965;-69
2023/05/07 06:16:03;;;;;;;;;;;;;;;;;;5097553;28;20013;-69
2023/05/07 06:18:29;;;;;;;;;;;;;;;;;;5097013;28;20318;-69
2023/05/07 06:22:53;;;;;;;;;;;;;;;;;;5112344;27;19916;-68
2023/05/07 06:25:19;;;;;;;;;;;;;;;;;;5111305;28;20030;-69
2023/05/07 06:27:44;;;;;;;;;;;;;;;;;;5110405;28;19908;-69
2023/05/07 06:33:55;;;;;;;;;;;;;;;;;;5112086;27;19912;-69
2023/05/07 06:36:31;;;;;;;;;;;;;;;;;;5111796;27;19916;-68
2023/05/07 06:38:57;;;;;;;;;;;;;;;;;;5111497;28;20002;-68
2023/05/07 06:41:23;;;;;;;;;;;;;;;;;;5111805;28;19908;-70
2023/05/07 06:43:49;;;;;;;;;;;;;;;;;;5111701;28;19916;-69
2023/05/07 06:49:27;;;;;;;;;;;;;;;;;;5092027;27;19923;-69
2023/05/07 06:51:53;;;;;;;;;;;;;;;;;;5091425;28;19916;-69
2023/05/07 06:54:20;;;;;;;;;;;;;;;;;;5091291;28;19908;-69
2023/05/07 06:56:46;;;;;;;;;;;;;;;;;;5091597;28;19908;-69
2023/05/07 06:59:12;;;;;;;;;;;;;;;;;;5090837;28;20284;-69
2023/05/07 07:01:38;;;;;;;;;;;;;;;;;;5091722;28;20265;-69
2023/05/07 07:04:03;;;;;;;;;;;;;;;;;;5091411;28;20006;-69
2023/05/07 07:06:31;;;;;;;;;;;;;;;;;;5090653;28;19909;-70
2023/05/07 07:14:16;;;;;;;;;;;;;;;;;;5091215;27;19920;-68
2023/05/07 07:16:42;;;;;;;;;;;;;;;;;;5091573;28;19955;-69
2023/05/07 07:19:08;;;;;;;;;;;;;;;;;;5091232;28;19951;-69
2023/05/07 07:22:40;;;;;;;;;;;;;;;;;;5091564;27;19923;-70
2023/05/07 07:27:26;;;;;;;;;;;;;;;;;;5152456;27;20042;-69
2023/05/07 07:29:52;;;;;;;;;;;;;;;;;;5153092;27;20410;-69
2023/05/07 07:32:18;;;;;;;;;;;;;;;;;;5152854;27;19998;-69
2023/05/07 07:34:44;;;;;;;;;;;;;;;;;;5152409;27;20024;-69
2023/05/07 07:37:10;;;;;;;;;;;;;;;;;;5152748;27;19953;-68
2023/05/07 07:39:37;;;;;;;;;;;;;;;;;;5152747;27;20391;-68
2023/05/07 07:42:03;;;;;;;;;;;;;;;;;;5152507;27;19907;-69
2023/05/07 07:44:29;;;;;;;;;;;;;;;;;;5152733;27;19915;-69
2023/05/07 07:50:30;;;;;;;;;;;;;;;;;;5152863;27;19912;-68
2023/05/07 07:55:29;;;;;;;;;;;;;;;;;;5112172;27;19916;-69
2023/05/07 08:00:34;;;;;;;;;;;;;;;;;;5071299;28;19923;-69
2023/05/07 08:03:00;;;;;;;;;;;;;;;;;;5070849;28;20333;-70
2023/05/07 08:05:26;;;;;;;;;;;;;;;;;;5071178;28;20364;-69
2023/05/07 08:10:50;;;;;;;;;;;;;;;;;;5091247;27;20281;-69
2023/05/07 08:20:03;;;;;;;;;;;;;;;;;;5092004;27;19939;-69
2023/05/07 08:22:29;;;;;;;;;;;;;;;;;;5091849;28;20412;-69
2023/05/07 08:24:55;;;;;;;;;;;;;;;;;;5090843;28;19912;-69
2023/05/07 08:27:21;;;;;;;;;;;;;;;;;;5091250;28;19959;-69
2023/05/07 08:30:36;;;;;;;;;;;;;;;;;;5111418;27;20240;-69
2023/05/07 08:33:17;;;;;;;;;;;;;;;;;;5173995;27;20009;-70
2023/05/07 08:35:43;;;;;;;;;;;;;;;;;;5173839;27;20398;-67
2023/05/07 08:40:28;;;;;;;;;;;;;;;;;;5153179;27;20429;-69
2023/05/07 08:48:04;;;;;;;;;;;;;;;;;;5112044;27;20303;-70
2023/05/07 08:50:29;;;;;;;;;;;;;;;;;;5111882;28;19912;-69
2023/05/07 08:52:56;;;;;;;;;;;;;;;;;;5111283;28;19908;-69
2023/05/07 08:57:43;;;;;;;;;;;;;;;;;;5111821;27;19918;-69
2023/05/07 09:00:09;;;;;;;;;;;;;;;;;;5111344;28;20007;-69
2023/05/07 09:04:40;;;;;;;;;;;;;;;;;;5092289;27;19923;-69
2023/05/07 09:09:44;;;;;;;;;;;;;;;;;;5091404;28;20410;-69
2023/05/07 09:12:53;;;;;;;;;;;;;;;;;;5111268;27;19916;-69
2023/05/07 09:15:19;;;;;;;;;;;;;;;;;;5111801;28;19987;-70
2023/05/07 09:17:45;;;;;;;;;;;;;;;;;;5111652;28;20276;-68
2023/05/07 09:21:24;;;;;;;;;;;;;;;;;;5090975;27;19917;-69
2023/05/07 09:23:49;;;;;;;;;;;;;;;;;;5091339;28;20349;-69
2023/05/07 09:32:00;;;;;;;;;;;;;;;;;;5112385;27;19916;-68
2023/05/07 09:34:26;;;;;;;;;;;;;;;;;;5111546;28;20006;-69
2023/05/07 09:39:00;;;;;;;;;;;;;;;;;;5091721;27;19916;-68
2023/05/07 09:43:44;;;;;;;;;;;;;;;;;;5071875;28;19917;-68
2023/05/07 09:48:02;;;;;;;;;;;;;;;;;;5091008;27;19917;-69
2023/05/07 09:50:47;;;;;;;;;;;;;;;;;;5071677;28;19923;-69
2023/05/07 09:53:13;;;;;;;;;;;;;;;;;;5071602;28;20342;-69
2023/05/07 09:58:08;;;;;;;;;;;;;;;;;;5112232;27;19912;-68
2023/05/07 10:01:11;;;;;;;;;;;;;;;;;;5091895;27;19917;-69
2023/05/07 10:03:36;;;;;;;;;;;;;;;;;;5091027;28;19913;-69
2023/05/07 10:08:54;;;;;;;;;;;;;;;;;;5091437;27;19922;-69
2023/05/07 10:11:20;;;;;;;;;;;;;;;;;;5091603;28;19913;-70
2023/05/07 10:13:46;;;;;;;;;;;;;;;;;;5091296;28;20019;-69
2023/05/07 10:16:12;;;;;;;;;;;;;;;;;;5090831;28;19966;-68
2023/05/07 10:18:38;;;;;;;;;;;;;;;;;;5091173;28;19915;-70
2023/05/07 10:22:36;;;;;;;;;;;;;;;;;;5092053;27;19916;-69
2023/05/07 10:25:02;;;;;;;;;;;;;;;;;;5091054;28;20015;-68
2023/05/07 10:27:28;;;;;;;;;;;;;;;;;;5091200;28;19954;-70
2023/05/07 10:32:07;;;;;;;;;;;;;;;;;;5111388;27;19922;-69
2023/05/07 10:34:42;;;;;;;;;;;;;;;;;;5112546;27;19923;-69
2023/05/07 10:37:08;;;;;;;;;;;;;;;;;;5111410;28;20002;-68
2023/05/07 10:39:34;;;;;;;;;;;;;;;;;;5111805;28;19908;-69
2023/05/07 10:42:00;;;;;;;;;;;;;;;;;;5111882;28;19915;-70
2023/05/07 10:44:26;;;;;;;;;;;;;;;;;;5111133;28;19908;-69
2023/05/07 10:46:52;;;;;;;;;;;;;;;;;;5111467;28;20292;-71
2023/05/07 10:49:18;;;;;;;;;;;;;;;;;;5111526;28;19909;-70
2023/05/07 10:51:46;;;;;;;;;;;;;;;;;;5111031;28;19908;-70
2023/05/07 10:54:12;;;;;;;;;;;;;;;;;;5111319;28;19970;-69
2023/05/07 10:56:38;;;;;;;;;;;;;;;;;;5111319;28;19915;-69
2023/05/07 10:59:30;;;;;;;;;;;;;;;;;;5070850;28;19923;-69
2023/05/07 11:03:55;;;;;;;;;;;;;;;;;;5091525;28;19912;-69
2023/05/07 11:06:55;;;;;;;;;;;;;;;;;;5152602;27;19912;-69
2023/05/07 11:12:20;;;;;;;;;;;;;;;;;;5111712;27;20299;-69
2023/05/07 11:14:46;;;;;;;;;;;;;;;;;;5111612;28;19944;-68
2023/05/07 11:17:12;;;;;;;;;;;;;;;;;;5111646;28;19908;-68
2023/05/07 11:19:38;;;;;;;;;;;;;;;;;;5111341;28;19915;-68
2023/05/07 11:22:04;;;;;;;;;;;;;;;;;;5111591;28;19915;-68
2023/05/07 11:24:30;;;;;;;;;;;;;;;;;;5111693;28;19912;-68
2023/05/07 11:26:56;;;;;;;;;;;;;;;;;;5109749;28;19915;-69
2023/05/07 11:29:22;;;;;;;;;;;;;;;;;;5111381;28;19908;-68
2023/05/07 11:31:48;;;;;;;;;;;;;;;;;;5111294;28;20015;-69
2023/05/07 11:34:14;;;;;;;;;;;;;;;;;;5110930;28;19977;-69
2023/05/07 11:36:40;;;;;;;;;;;;;;;;;;5111309;28;19912;-68
2023/05/07 11:39:07;;;;;;;;;;;;;;;;;;5109915;28;19925;-68
2023/05/07 11:44:03;;;;;;;;;;;;;;;;;;5092210;27;20365;-69
2023/05/07 11:46:29;;;;;;;;;;;;;;;;;;5091394;28;19995;-68
2023/05/07 11:48:55;;;;;;;;;;;;;;;;;;5089577;28;19908;-69
2023/05/07 11:51:21;;;;;;;;;;;;;;;;;;5091334;28;19908;-68
2023/05/07 11:53:47;;;;;;;;;;;;;;;;;;5089913;28;19954;-68
2023/05/07 11:56:51;;;;;;;;;;;;;;;;;;5071734;28;19917;-68
2023/05/07 11:59:17;;;;;;;;;;;;;;;;;;5071169;28;19996;-69
2023/05/07 12:02:28;;;;;;;;;;;;;;;;;;5091441;27;19917;-68
2023/05/07 12:04:53;;;;;;;;;;;;;;;;;;5091318;28;20368;-69
2023/05/07 12:07:19;;;;;;;;;;;;;;;;;;5091275;28;19908;-69
2023/05/07 12:09:45;;;;;;;;;;;;;;;;;;5090785;28;19914;-69
2023/05/07 12:12:11;;;;;;;;;;;;;;;;;;5091435;28;19908;-69
2023/05/07 12:14:37;;;;;;;;;;;;;;;;;;5091402;28;19955;-69
2023/05/07 12:17:04;;;;;;;;;;;;;;;;;;5090881;28;20432;-69
2023/05/07 12:19:30;;;;;;;;;;;;;;;;;;5091093;28;19916;-69
2023/05/07 12:21:56;;;;;;;;;;;;;;;;;;5090933;28;19916;-69
2023/05/07 12:24:22;;;;;;;;;;;;;;;;;;5090606;28;19915;-69
2023/05/07 12:26:48;;;;;;;;;;;;;;;;;;5090774;28;19962;-69
2023/05/07 12:29:14;;;;;;;;;;;;;;;;;;5089607;28;19920;-70
2023/05/07 12:31:40;;;;;;;;;;;;;;;;;;5090357;28;19912;-69
2023/05/07 12:34:06;;;;;;;;;;;;;;;;;;5090916;28;19961;-69
2023/05/07 12:36:32;;;;;;;;;;;;;;;;;;5089386;28;19912;-69
2023/05/07 12:38:58;;;;;;;;;;;;;;;;;;5090472;28;19908;-69
2023/05/07 12:41:26;;;;;;;;;;;;;;;;;;5090823;28;19917;-69
2023/05/07 12:43:52;;;;;;;;;;;;;;;;;;5090222;28;20404;-69
2023/05/07 12:46:18;;;;;;;;;;;;;;;;;;5089670;28;19995;-69
2023/05/07 12:48:46;;;;;;;;;;;;;;;;;;5090511;28;19909;-69
2023/05/07 12:51:13;;;;;;;;;;;;;;;;;;5089929;28;20003;-69
2023/05/07 12:53:39;;;;;;;;;;;;;;;;;;5090529;28;19912;-68
2023/05/07 12:56:05;;;;;;;;;;;;;;;;;;5090387;28;19915;-68
2023/05/07 12:58:31;;;;;;;;;;;;;;;;;;5089990;28;20002;-68
2023/05/07 13:00:58;;;;;;;;;;;;;;;;;;5089864;28;19924;-68
2023/05/07 13:03:24;;;;;;;;;;;;;;;;;;5088896;28;19953;-69
2023/05/07 13:05:50;;;;;;;;;;;;;;;;;;5089775;28;19908;-69
2023/05/07 13:08:16;;;;;;;;;;;;;;;;;;5090785;28;19916;-69
2023/05/07 13:10:42;;;;;;;;;;;;;;;;;;5090089;28;19908;-69
2023/05/07 13:13:08;;;;;;;;;;;;;;;;;;5079826;28;19915;-69
2023/05/07 13:15:34;;;;;;;;;;;;;;;;;;5076600;28;20005;-69
2023/05/07 13:17:59;;;;;;;;;;;;;;;;;;5075306;28;19912;-69
2023/05/07 13:20:25;;;;;;;;;;;;;;;;;;5075947;28;19920;-69
2023/05/07 13:22:51;;;;;;;;;;;;;;;;;;5076386;28;19944;-69
2023/05/07 13:25:17;;;;;;;;;;;;;;;;;;5076398;28;20340;-69
2023/05/07 13:27:43;;;;;;;;;;;;;;;;;;5075936;28;19999;-69
2023/05/07 13:30:09;;;;;;;;;;;;;;;;;;5076702;28;20364;-70
2023/05/07 13:32:35;;;;;;;;;;;;;;;;;;5076289;28;19916;-69
2023/05/07 13:35:01;;;;;;;;;;;;;;;;;;5075779;28;19908;-69
2023/05/07 13:37:27;;;;;;;;;;;;;;;;;;5074849;28;19909;-69
2023/05/07 13:39:53;;;;;;;;;;;;;;;;;;5075667;28;20012;-69
2023/05/07 13:42:19;;;;;;;;;;;;;;;;;;5075981;28;20429;-69
2023/05/07 13:44:45;;;;;;;;;;;;;;;;;;5075999;28;19940;-69
2023/05/07 13:47:11;;;;;;;;;;;;;;;;;;5075414;28;19995;-70
2023/05/07 13:49:37;;;;;;;;;;;;;;;;;;5075804;28;20001;-70
2023/05/07 13:52:04;;;;;;;;;;;;;;;;;;5075920;28;19909;-70
2023/05/07 13:54:30;;;;;;;;;;;;;;;;;;5075431;28;19908;-69
2023/05/07 13:56:55;;;;;;;;;;;;;;;;;;5075756;28;19962;-69
2023/05/07 13:59:21;;;;;;;;;;;;;;;;;;5075697;28;19916;-69
2023/05/07 14:01:47;;;;;;;;;;;;;;;;;;5074857;28;20007;-69
2023/05/07 14:04:13;;;;;;;;;;;;;;;;;;5075583;28;20003;-69
2023/05/07 14:06:39;;;;;;;;;;;;;;;;;;5075541;28;20360;-69
2023/05/07 14:09:05;;;;;;;;;;;;;;;;;;5073834;28;19970;-69
2023/05/07 14:11:31;;;;;;;;;;;;;;;;;;5075459;28;19915;-69
2023/05/07 14:13:58;;;;;;;;;;;;;;;;;;5075363;28;19943;-69
2023/05/07 14:16:24;;;;;;;;;;;;;;;;;;5075022;28;19916;-69
2023/05/07 14:18:50;;;;;;;;;;;;;;;;;;5075505;28;19978;-70
2023/05/07 14:21:16;;;;;;;;;;;;;;;;;;5075562;28;20372;-69
2023/05/07 14:23:42;;;;;;;;;;;;;;;;;;5074059;28;19908;-69
2023/05/07 14:26:08;;;;;;;;;;;;;;;;;;5075184;28;19908;-70
2023/05/07 14:28:34;;;;;;;;;;;;;;;;;;5075119;28;19916;-69
2023/05/07 14:30:59;;;;;;;;;;;;;;;;;;5074662;28;19908;-70
2023/05/07 14:33:25;;;;;;;;;;;;;;;;;;5074883;28;20426;-69
2023/05/07 14:35:51;;;;;;;;;;;;;;;;;;5073704;28;19931;-69
2023/05/07 14:38:17;;;;;;;;;;;;;;;;;;5074553;28;20012;-69
2023/05/07 14:40:43;;;;;;;;;;;;;;;;;;5074775;28;19917;-69
2023/05/07 14:43:09;;;;;;;;;;;;;;;;;;5074644;28;20434;-70
2023/05/07 14:45:35;;;;;;;;;;;;;;;;;;5074747;28;20418;-69
2023/05/07 14:48:01;;;;;;;;;;;;;;;;;;5074884;28;19909;-70
2023/05/07 14:50:27;;;;;;;;;;;;;;;;;;5074486;28;19930;-70
2023/05/07 14:52:53;;;;;;;;;;;;;;;;;;5073435;28;19912;-69
2023/05/07 14:55:19;;;;;;;;;;;;;;;;;;5074680;28;19908;-69
2023/05/07 14:57:45;;;;;;;;;;;;;;;;;;5074140;28;19915;-69
2023/05/07 15:00:11;;;;;;;;;;;;;;;;;;5074396;28;20288;-69
2023/05/07 15:02:37;;;;;;;;;;;;;;;;;;5074333;28;20304;-69
2023/05/07 15:05:03;;;;;;;;;;;;;;;;;;5073977;28;20384;-69
2023/05/07 15:07:29;;;;;;;;;;;;;;;;;;5074268;28;19908;-69
2023/05/07 15:09:55;;;;;;;;;;;;;;;;;;5073280;28;19947;-69
2023/05/07 15:12:21;;;;;;;;;;;;;;;;;;5073890;28;19909;-69
2023/05/07 15:14:47;;;;;;;;;;;;;;;;;;5074216;28;19914;-69
2023/05/07 15:17:14;;;;;;;;;;;;;;;;;;5074233;28;19958;-69
2023/05/07 15:19:40;;;;;;;;;;;;;;;;;;5073807;28;19912;-70
2023/05/07 15:22:06;;;;;;;;;;;;;;;;;;5074052;28;19974;-69
2023/05/07 15:24:33;;;;;;;;;;;;;;;;;;5074155;28;20353;-69
2023/05/07 15:27:02;;;;;;;;;;;;;;;;;;5073672;28;20425;-69
2023/05/07 15:29:31;;;;;;;;;;;;;;;;;;5072695;28;19908;-69
2023/05/07 15:32:00;;;;;;;;;;;;;;;;;;5074043;28;19919;-69
2023/05/07 15:34:26;;;;;;;;;;;;;;;;;;5073652;28;20337;-69
2023/05/07 15:36:58;;;;;;;;;;;;;;;;;;5072500;28;19908;-69
2023/05/07 15:39:32;;;;;;;;;;;;;;;;;;5073353;28;19918;-69
2023/05/07 15:42:01;;;;;;;;;;;;;;;;;;5073968;28;20273;-70
2023/05/07 15:44:31;;;;;;;;;;;;;;;;;;5073954;28;19958;-69
2023/05/07 15:46:58;;;;;;;;;;;;;;;;;;5073442;28;19908;-69
2023/05/07 15:49:27;;;;;;;;;;;;;;;;;;5074044;28;20321;-69
2023/05/07 15:51:54;;;;;;;;;;;;;;;;;;5074028;28;19909;-69
2023/05/07 15:54:20;;;;;;;;;;;;;;;;;;5073254;28;19916;-69
2023/05/07 15:56:46;;;;;;;;;;;;;;;;;;5073755;28;19912;-68
2023/05/07 15:59:14;;;;;;;;;;;;;;;;;;5073640;28;19915;-68
2023/05/07 16:01:41;;;;;;;;;;;;;;;;;;5072587;28;19924;-69
2023/05/07 16:04:07;;;;;;;;;;;;;;;;;;5073460;28;19914;-70
2023/05/07 16:06:33;;;;;;;;;;;;;;;;;;5073522;28;19908;-70
2023/05/07 16:08:59;;;;;;;;;;;;;;;;;;5071845;28;20284;-69
2023/05/07 16:11:25;;;;;;;;;;;;;;;;;;5073522;28;20383;-68
2023/05/07 16:13:51;;;;;;;;;;;;;;;;;;5073396;28;19908;-68
2023/05/07 16:16:18;;;;;;;;;;;;;;;;;;5073170;28;19954;-68
2023/05/07 16:18:44;;;;;;;;;;;;;;;;;;5072132;28;19909;-68
2023/05/07 16:21:09;;;;;;;;;;;;;;;;;;5073387;28;20011;-68
2023/05/07 16:23:36;;;;;;;;;;;;;;;;;;5073051;28;19908;-68
2023/05/07 16:26:03;;;;;;;;;;;;;;;;;;5073643;28;19969;-68
2023/05/07 16:28:29;;;;;;;;;;;;;;;;;;5073304;28;19915;-68
2023/05/07 16:30:55;;;;;;;;;;;;;;;;;;5072933;28;19908;-68
2023/05/07 16:33:21;;;;;;;;;;;;;;;;;;5073332;28;20369;-68
2023/05/07 16:35:47;;;;;;;;;;;;;;;;;;5071665;28;20414;-68
2023/05/07 16:38:13;;;;;;;;;;;;;;;;;;5073285;28;19913;-67
2023/05/07 16:40:39;;;;;;;;;;;;;;;;;;5073072;28;19913;-68
2023/05/07 16:43:51;;;;;;;;;;;;;;;;;;5050653;28;20296;-68
2023/05/07 16:46:17;;;;;;;;;;;;;;;;;;5051258;28;19999;-68
2023/05/07 16:48:43;;;;;;;;;;;;;;;;;;5050932;28;19970;-68
2023/05/07 16:51:09;;;;;;;;;;;;;;;;;;5049348;28;19913;-68
2023/05/07 16:53:35;;;;;;;;;;;;;;;;;;5050937;28;20338;-67
2023/05/07 16:56:49;;;;;;;;;;;;;;;;;;5111631;27;19912;-67
2023/05/07 17:01:53;;;;;;;;;;;;;;;;;;5099895;27;2093568;-68
2023/05/07 17:04:19;;;;;;;;;;;;;;;;;;5173241;27;20435;-69
2023/05/07 17:15:04;;;;;;;;;;;;;;;;;;5091378;27;19922;-67
2023/05/07 17:17:29;;;;;;;;;;;;;;;;;;5091565;28;20003;-68
2023/05/07 17:19:56;;;;;;;;;;;;;;;;;;5090776;28;19912;-68
2023/05/07 17:22:21;;;;;;;;;;;;;;;;;;5091388;28;19908;-68
2023/05/07 17:26:18;;;;;;;;;;;;;;;;;;5091271;27;19917;-68
2023/05/07 17:29:56;;;;;;;;;;;;;;;;;;5092191;27;19923;-69
2023/05/07 17:32:22;;;;;;;;;;;;;;;;;;5090983;28;20011;-69
2023/05/07 17:39:04;;;;;;;;;;;;;;;;;;5111829;27;19916;-68
2023/05/07 17:41:30;;;;;;;;;;;;;;;;;;5111486;28;20007;-68
2023/05/07 17:43:55;;;;;;;;;;;;;;;;;;5111583;28;19960;-69
2023/05/07 17:46:21;;;;;;;;;;;;;;;;;;5111120;28;19912;-68
2023/05/07 17:48:47;;;;;;;;;;;;;;;;;;5111658;28;19999;-68
2023/05/07 17:53:50;;;;;;;;;;;;;;;;;;5091554;27;19919;-68
2023/05/07 17:58:11;;;;;;;;;;;;;;;;;;5112165;27;19916;-71
2023/05/07 18:00:37;;;;;;;;;;;;;;;;;;5111727;28;20460;-69
2023/05/07 18:03:36;;;;;;;;;;;;;;;;;;5091992;27;19922;-68
2023/05/07 18:09:38;;;;;;;;;;;;;;;;;;5091969;27;19916;-69
2023/05/07 18:12:04;;;;;;;;;;;;;;;;;;5090070;28;19995;-69
2023/05/07 18:14:30;;;;;;;;;;;;;;;;;;5090908;28;20391;-68
2023/05/07 18:16:56;;;;;;;;;;;;;;;;;;5091275;28;19908;-69
2023/05/07 18:23:07;;;;;;;;;;;;;;;;;;5091118;28;19916;-70
2023/05/07 18:25:33;;;;;;;;;;;;;;;;;;5091369;28;19912;-69
2023/05/07 18:27:59;;;;;;;;;;;;;;;;;;5091277;28;19919;-69
2023/05/07 18:30:25;;;;;;;;;;;;;;;;;;5090726;28;19916;-69
2023/05/07 18:39:10;;;;;;;;;;;;;;;;;;5153549;27;19927;-69
2023/05/07 18:43:28;;;;;;;;;;;;;;;;;;5111639;27;19934;-70